Warnock, Ohio
Current Conditions -  °F | °C
As of 3:04 AM on Friday 24 Oct 2014 (Local Time) from KHLG Reporting Station
Moderate Fog Moderate Fog  
Wind Chill: 41°   Ceiling: 200
Heat Index: 41°   Visibility: 0.5mi
Dew Point: 40°   Wind: 0mph
Humidity: 96%   Direction: NA
Pressure: 30.09"   Gusts: NA
Location:  40.02°N, 80.94°W
Report Text: KHLG 240704Z AUTO 00000KT 1/2SM R03/1800V4000FT FG VV002 05/04 A3009 RMK AO2 T00500044
Loading
Personal Weather Stations






























Interactive Weather Map
Tropical Storm Tracking
New forecast layout! Learn more

10-Day Weather Forecast

Advertisements
Track Severe Weather on mobile